Flugplatz Weißenhorn

Für EDNW sind keine METAR/TAF Berichte vorhanden.
Es werden die Flugwettermeldungen vom Flugplatz Laupheim Airport in 18 km Entfernung angezeigt.

Bericht für ETHL

vom 28.09. um 22:20 UTC

Wind 3 kt aus 70°

Sichtweite 10 km oder mehr

gering bewölkt in 1700 ft

aufgebrochene Bewölkung in 2500 ft

Temperatur 13.0°C

Taupunkt 11.0°C

Luftfeuchtigkeit 88%

Luftdruck 1019 hPa

ETHL 282220Z 07003KT 9999 FEW017 BKN025 13/11 Q1019 BLU

Prognose für ETHL

vom 28.09. um 19:20 UTC

Am 28.09. zwischen 20:00 UTC und 05:00 UTC

Wind 5 kt aus 50°

Sichtweite 10 km oder mehr

keine signifikanten Wettererscheinungen

gering bewölkt in 2000 ft

aufgebrochene Bewölkung in 3000 ft


Am 28.09. zwischen 20:00 UTC und 22:00 UTC zeitweise

variable Windrichtung mit 3 kt

Sichtweite 8000 m

keine signifikanten Wettererscheinungen

aufgelockert bewölkt in 1000 ft

aufgebrochene Bewölkung in 2000 ft


Am 28.09. zwischen 22:00 UTC und 05:00 UTC zeitweise

variable Windrichtung mit 3 kt

Sichtweite 7000 m

keine signifikanten Wettererscheinungen

aufgebrochene Bewölkung in 800 ft

TAF ETHL 281920Z 2820/2905 05005KT 9999 NSW FEW020 BKN030 TEMPO 2820/2822 VRB03KT 8000 NSW SCT010 BKN020 TEMPO 2822/2905 VRB03KT 7000 NSW BKN008
Impressum